LSMA Airport Information

Runway Information
Runway 01 Length 4920 ft width 130 ft
Elevation 1460 ft Threshold 0 ft Heading 11
Runway 19 Length 4920 ft Width 130 ft
Elevation 1425 ft Threshold 0 ft Heading 191
Airport Frequencies
Type ARR Name ARR/DEP Frequency 33.787 MHZ
Type ARR Name ARR/DEP Frequency 139.45 MHZ
Type INFO Name INFO Frequency 138.05 MHZ
Type TWR Name TWR Frequency 119.625 MHZ
Airport Navaids
Airport Weather Information & NOTAM
ADDS - METARS form results

(1219 UTC 18 October 2018)
Data provider http://aviationweather.gov/metar/data/
 
METAR text: LSMA 181150Z 05005KT 020V080 8000 NSC 16/10 Q1018 RMK BLU
Conditions at: LSMA (ALPNACH , CH) observed 1150 UTC 18 October 2018
Temperature: 16.0°C (61°F)
Dewpoint: 10.0°C (50°F) [RH = 68%]
Pressure (altimeter): 30.06 inches Hg (1018.0 mb)
Winds: from the NE (50 degrees) at 6 MPH (5 knots; 2.6 m/s)
Visibility: 5 miles ( 8 km)
Ceiling: at least 12,000 feet AGL
Clouds: sky clear below 12,000 feet AGL
Weather: no significant weather observed at this time

METAR text: LSMA 181120Z 04005KT 340V070 8000 NSC 15/10 Q1019 RMK BLU
Conditions at: LSMA (ALPNACH , CH) observed 1120 UTC 18 October 2018
Temperature: 15.0°C (59°F)
Dewpoint: 10.0°C (50°F) [RH = 72%]
Pressure (altimeter): 30.09 inches Hg (1019.0 mb)
Winds: from the NE (40 degrees) at 6 MPH (5 knots; 2.6 m/s)
Visibility: 5 miles ( 8 km)
Ceiling: at least 12,000 feet AGL
Clouds: sky clear below 12,000 feet AGL
Weather: no significant weather observed at this time